sensor_id;sensor_type;location;lat;lon;timestamp;P1;durP1;ratioP1;P2;durP2;ratioP2
13404;SDS011;6773;51.192;7.024;2023-04-03T00:02:06;6.37;;;5.77;;
13404;SDS011;6773;51.192;7.024;2023-04-03T00:04:32;6.53;;;5.93;;
13404;SDS011;6773;51.192;7.024;2023-04-03T00:06:57;6.67;;;5.27;;
13404;SDS011;6773;51.192;7.024;2023-04-03T00:09:23;5.87;;;5.33;;
13404;SDS011;6773;51.192;7.024;2023-04-03T00:11:49;8.47;;;5.93;;
13404;SDS011;6773;51.192;7.024;2023-04-03T00:14:15;6.97;;;5.40;;
13404;SDS011;6773;51.192;7.024;2023-04-03T00:16:41;5.97;;;5.47;;
13404;SDS011;6773;51.192;7.024;2023-04-03T00:19:07;10.57;;;5.40;;
13404;SDS011;6773;51.192;7.024;2023-04-03T00:21:33;7.90;;;5.70;;
13404;SDS011;6773;51.192;7.024;2023-04-03T00:23:58;6.60;;;6.00;;
13404;SDS011;6773;51.192;7.024;2023-04-03T00:26:24;6.20;;;5.47;;
13404;SDS011;6773;51.192;7.024;2023-04-03T00:28:50;5.63;;;5.07;;
13404;SDS011;6773;51.192;7.024;2023-04-03T00:31:16;5.77;;;5.27;;
13404;SDS011;6773;51.192;7.024;2023-04-03T00:33:42;6.20;;;5.40;;
13404;SDS011;6773;51.192;7.024;2023-04-03T00:36:08;6.07;;;5.23;;
13404;SDS011;6773;51.192;7.024;2023-04-03T00:38:35;7.70;;;5.50;;
13404;SDS011;6773;51.192;7.024;2023-04-03T00:41:01;5.60;;;4.93;;
13404;SDS011;6773;51.192;7.024;2023-04-03T00:43:27;7.00;;;5.57;;
13404;SDS011;6773;51.192;7.024;2023-04-03T00:45:54;8.33;;;4.90;;
13404;SDS011;6773;51.192;7.024;2023-04-03T00:48:22;7.37;;;4.93;;
13404;SDS011;6773;51.192;7.024;2023-04-03T00:50:58;5.43;;;4.93;;
13404;SDS011;6773;51.192;7.024;2023-04-03T00:53:27;5.40;;;4.87;;
13404;SDS011;6773;51.192;7.024;2023-04-03T00:56:15;6.37;;;4.33;;
13404;SDS011;6773;51.192;7.024;2023-04-03T00:58:44;6.10;;;4.70;;
13404;SDS011;6773;51.192;7.024;2023-04-03T01:01:22;7.90;;;4.63;;
13404;SDS011;6773;51.192;7.024;2023-04-03T01:03:51;6.30;;;5.70;;
13404;SDS011;6773;51.192;7.024;2023-04-03T01:06:17;7.50;;;5.67;;
13404;SDS011;6773;51.192;7.024;2023-04-03T01:08:47;8.73;;;5.57;;
13404;SDS011;6773;51.192;7.024;2023-04-03T01:11:14;6.17;;;4.97;;
13404;SDS011;6773;51.192;7.024;2023-04-03T01:13:40;5.57;;;4.93;;
13404;SDS011;6773;51.192;7.024;2023-04-03T01:16:06;5.67;;;4.60;;
13404;SDS011;6773;51.192;7.024;2023-04-03T01:18:32;7.90;;;4.57;;
13404;SDS011;6773;51.192;7.024;2023-04-03T01:24:04;7.53;;;5.27;;
13404;SDS011;6773;51.192;7.024;2023-04-03T01:26:36;5.53;;;4.87;;
13404;SDS011;6773;51.192;7.024;2023-04-03T01:29:02;5.97;;;4.63;;
13404;SDS011;6773;51.192;7.024;2023-04-03T01:31:31;5.40;;;4.90;;
13404;SDS011;6773;51.192;7.024;2023-04-03T01:34:04;8.00;;;4.50;;
13404;SDS011;6773;51.192;7.024;2023-04-03T01:36:30;4.87;;;4.30;;
13404;SDS011;6773;51.192;7.024;2023-04-03T01:38:58;6.03;;;4.03;;
13404;SDS011;6773;51.192;7.024;2023-04-03T01:41:24;4.87;;;4.33;;
13404;SDS011;6773;51.192;7.024;2023-04-03T01:43:51;5.30;;;4.60;;
13404;SDS011;6773;51.192;7.024;2023-04-03T01:46:17;4.77;;;4.37;;
13404;SDS011;6773;51.192;7.024;2023-04-03T01:48:43;7.87;;;5.03;;
13404;SDS011;6773;51.192;7.024;2023-04-03T01:51:09;3.63;;;3.37;;
13404;SDS011;6773;51.192;7.024;2023-04-03T01:53:35;5.23;;;4.30;;
13404;SDS011;6773;51.192;7.024;2023-04-03T01:56:01;5.20;;;3.83;;
13404;SDS011;6773;51.192;7.024;2023-04-03T01:58:27;4.50;;;4.10;;
13404;SDS011;6773;51.192;7.024;2023-04-03T02:00:52;5.73;;;4.17;;
13404;SDS011;6773;51.192;7.024;2023-04-03T02:03:18;5.97;;;3.83;;
13404;SDS011;6773;51.192;7.024;2023-04-03T02:05:45;5.63;;;3.90;;
13404;SDS011;6773;51.192;7.024;2023-04-03T02:08:10;5.03;;;4.10;;
13404;SDS011;6773;51.192;7.024;2023-04-03T02:10:36;4.67;;;3.80;;
13404;SDS011;6773;51.192;7.024;2023-04-03T02:13:02;4.87;;;4.40;;
13404;SDS011;6773;51.192;7.024;2023-04-03T02:15:27;4.67;;;4.00;;
13404;SDS011;6773;51.192;7.024;2023-04-03T02:17:53;4.73;;;4.10;;
13404;SDS011;6773;51.192;7.024;2023-04-03T02:20:19;4.13;;;3.60;;
13404;SDS011;6773;51.192;7.024;2023-04-03T02:22:45;5.03;;;3.80;;
13404;SDS011;6773;51.192;7.024;2023-04-03T02:25:11;4.90;;;4.00;;
13404;SDS011;6773;51.192;7.024;2023-04-03T02:27:37;5.27;;;3.80;;
13404;SDS011;6773;51.192;7.024;2023-04-03T02:30:03;3.87;;;3.50;;
13404;SDS011;6773;51.192;7.024;2023-04-03T02:32:30;4.00;;;3.63;;
13404;SDS011;6773;51.192;7.024;2023-04-03T02:34:56;4.67;;;3.83;;
13404;SDS011;6773;51.192;7.024;2023-04-03T02:37:21;4.30;;;3.90;;
13404;SDS011;6773;51.192;7.024;2023-04-03T02:39:47;4.43;;;4.03;;
13404;SDS011;6773;51.192;7.024;2023-04-03T02:42:13;6.63;;;4.30;;
13404;SDS011;6773;51.192;7.024;2023-04-03T02:44:39;6.50;;;4.47;;
13404;SDS011;6773;51.192;7.024;2023-04-03T02:47:05;6.20;;;4.37;;
13404;SDS011;6773;51.192;7.024;2023-04-03T02:49:31;6.57;;;4.27;;
13404;SDS011;6773;51.192;7.024;2023-04-03T02:51:57;4.53;;;4.13;;
13404;SDS011;6773;51.192;7.024;2023-04-03T02:54:23;5.83;;;4.60;;
13404;SDS011;6773;51.192;7.024;2023-04-03T02:56:52;4.67;;;4.27;;
13404;SDS011;6773;51.192;7.024;2023-04-03T02:59:18;4.80;;;4.40;;
13404;SDS011;6773;51.192;7.024;2023-04-03T03:01:43;6.00;;;4.20;;
13404;SDS011;6773;51.192;7.024;2023-04-03T03:04:09;5.23;;;4.60;;
13404;SDS011;6773;51.192;7.024;2023-04-03T03:06:35;4.93;;;4.43;;
13404;SDS011;6773;51.192;7.024;2023-04-03T03:09:00;5.43;;;4.23;;
13404;SDS011;6773;51.192;7.024;2023-04-03T03:11:26;5.50;;;4.63;;
13404;SDS011;6773;51.192;7.024;2023-04-03T03:13:52;6.87;;;4.60;;
13404;SDS011;6773;51.192;7.024;2023-04-03T03:16:17;5.17;;;4.60;;
13404;SDS011;6773;51.192;7.024;2023-04-03T03:18:43;5.87;;;4.60;;
13404;SDS011;6773;51.192;7.024;2023-04-03T03:21:09;4.93;;;4.50;;
13404;SDS011;6773;51.192;7.024;2023-04-03T03:23:35;7.47;;;4.43;;
13404;SDS011;6773;51.192;7.024;2023-04-03T03:26:03;5.13;;;4.63;;
13404;SDS011;6773;51.192;7.024;2023-04-03T03:28:30;5.57;;;4.30;;
13404;SDS011;6773;51.192;7.024;2023-04-03T03:30:58;7.90;;;4.70;;
13404;SDS011;6773;51.192;7.024;2023-04-03T03:33:25;5.73;;;4.03;;
13404;SDS011;6773;51.192;7.024;2023-04-03T03:35:51;5.97;;;4.40;;
13404;SDS011;6773;51.192;7.024;2023-04-03T03:38:18;6.07;;;4.10;;
13404;SDS011;6773;51.192;7.024;2023-04-03T03:40:44;4.63;;;4.23;;
13404;SDS011;6773;51.192;7.024;2023-04-03T03:43:09;6.43;;;4.10;;
13404;SDS011;6773;51.192;7.024;2023-04-03T03:45:35;7.47;;;4.10;;
13404;SDS011;6773;51.192;7.024;2023-04-03T03:48:01;5.10;;;4.13;;
13404;SDS011;6773;51.192;7.024;2023-04-03T03:50:27;6.57;;;4.47;;
13404;SDS011;6773;51.192;7.024;2023-04-03T03:52:53;8.43;;;4.53;;
13404;SDS011;6773;51.192;7.024;2023-04-03T03:55:18;6.70;;;4.20;;
13404;SDS011;6773;51.192;7.024;2023-04-03T03:57:44;4.87;;;4.33;;
13404;SDS011;6773;51.192;7.024;2023-04-03T04:00:10;4.40;;;3.93;;
13404;SDS011;6773;51.192;7.024;2023-04-03T04:02:36;5.90;;;4.47;;
13404;SDS011;6773;51.192;7.024;2023-04-03T04:05:02;6.73;;;4.60;;
13404;SDS011;6773;51.192;7.024;2023-04-03T04:07:28;7.03;;;4.30;;
13404;SDS011;6773;51.192;7.024;2023-04-03T04:09:54;6.33;;;4.50;;
13404;SDS011;6773;51.192;7.024;2023-04-03T04:12:19;5.37;;;4.20;;
13404;SDS011;6773;51.192;7.024;2023-04-03T04:14:46;5.10;;;4.47;;
13404;SDS011;6773;51.192;7.024;2023-04-03T04:17:15;4.60;;;3.83;;
13404;SDS011;6773;51.192;7.024;2023-04-03T04:19:40;5.30;;;4.10;;
13404;SDS011;6773;51.192;7.024;2023-04-03T04:22:06;5.53;;;4.30;;
13404;SDS011;6773;51.192;7.024;2023-04-03T04:24:31;6.03;;;3.87;;
13404;SDS011;6773;51.192;7.024;2023-04-03T04:26:57;4.50;;;4.10;;
13404;SDS011;6773;51.192;7.024;2023-04-03T04:29:23;6.90;;;5.17;;
13404;SDS011;6773;51.192;7.024;2023-04-03T04:31:49;4.83;;;4.27;;
13404;SDS011;6773;51.192;7.024;2023-04-03T04:34:15;7.27;;;4.30;;
13404;SDS011;6773;51.192;7.024;2023-04-03T04:36:41;5.83;;;4.57;;
13404;SDS011;6773;51.192;7.024;2023-04-03T04:39:07;6.27;;;4.57;;
13404;SDS011;6773;51.192;7.024;2023-04-03T04:41:33;4.50;;;4.10;;
13404;SDS011;6773;51.192;7.024;2023-04-03T04:43:59;5.70;;;4.30;;
13404;SDS011;6773;51.192;7.024;2023-04-03T04:46:25;5.97;;;4.10;;
13404;SDS011;6773;51.192;7.024;2023-04-03T04:48:51;3.97;;;3.67;;
13404;SDS011;6773;51.192;7.024;2023-04-03T04:51:16;8.67;;;4.47;;
13404;SDS011;6773;51.192;7.024;2023-04-03T04:53:42;6.93;;;4.27;;
13404;SDS011;6773;51.192;7.024;2023-04-03T04:56:08;7.97;;;4.40;;
13404;SDS011;6773;51.192;7.024;2023-04-03T04:58:34;4.43;;;4.13;;
13404;SDS011;6773;51.192;7.024;2023-04-03T05:01:00;7.83;;;4.30;;
13404;SDS011;6773;51.192;7.024;2023-04-03T05:03:26;5.67;;;4.30;;
13404;SDS011;6773;51.192;7.024;2023-04-03T05:05:52;5.93;;;4.33;;
13404;SDS011;6773;51.192;7.024;2023-04-03T05:08:17;4.47;;;4.07;;
13404;SDS011;6773;51.192;7.024;2023-04-03T05:10:44;4.97;;;4.50;;
13404;SDS011;6773;51.192;7.024;2023-04-03T05:13:10;5.97;;;4.53;;
13404;SDS011;6773;51.192;7.024;2023-04-03T05:15:36;6.23;;;4.60;;
13404;SDS011;6773;51.192;7.024;2023-04-03T05:18:02;4.87;;;4.20;;
13404;SDS011;6773;51.192;7.024;2023-04-03T05:20:28;8.00;;;4.50;;
13404;SDS011;6773;51.192;7.024;2023-04-03T05:22:53;5.60;;;4.00;;
13404;SDS011;6773;51.192;7.024;2023-04-03T05:25:19;9.67;;;5.37;;
13404;SDS011;6773;51.192;7.024;2023-04-03T05:27:44;8.13;;;4.40;;
13404;SDS011;6773;51.192;7.024;2023-04-03T05:30:10;6.47;;;4.17;;
13404;SDS011;6773;51.192;7.024;2023-04-03T05:32:36;6.20;;;4.60;;
13404;SDS011;6773;51.192;7.024;2023-04-03T05:35:02;7.50;;;4.90;;
13404;SDS011;6773;51.192;7.024;2023-04-03T05:37:28;7.00;;;3.90;;
13404;SDS011;6773;51.192;7.024;2023-04-03T05:39:53;6.53;;;4.20;;
13404;SDS011;6773;51.192;7.024;2023-04-03T05:42:19;6.70;;;4.20;;
13404;SDS011;6773;51.192;7.024;2023-04-03T05:44:45;5.47;;;4.20;;
13404;SDS011;6773;51.192;7.024;2023-04-03T05:47:12;4.83;;;4.17;;
13404;SDS011;6773;51.192;7.024;2023-04-03T05:49:38;6.93;;;4.30;;
13404;SDS011;6773;51.192;7.024;2023-04-03T05:54:52;4.77;;;4.23;;
13404;SDS011;6773;51.192;7.024;2023-04-03T05:57:18;6.10;;;4.43;;
13404;SDS011;6773;51.192;7.024;2023-04-03T05:59:44;7.70;;;4.40;;
13404;SDS011;6773;51.192;7.024;2023-04-03T06:02:11;6.90;;;4.50;;
13404;SDS011;6773;51.192;7.024;2023-04-03T06:04:37;5.60;;;4.10;;
13404;SDS011;6773;51.192;7.024;2023-04-03T06:07:03;6.17;;;4.53;;
13404;SDS011;6773;51.192;7.024;2023-04-03T06:09:29;8.13;;;4.10;;
13404;SDS011;6773;51.192;7.024;2023-04-03T06:11:55;6.73;;;4.33;;
13404;SDS011;6773;51.192;7.024;2023-04-03T06:14:23;6.43;;;4.03;;
13404;SDS011;6773;51.192;7.024;2023-04-03T06:16:49;9.97;;;4.00;;
13404;SDS011;6773;51.192;7.024;2023-04-03T06:19:15;6.80;;;4.13;;
13404;SDS011;6773;51.192;7.024;2023-04-03T06:21:41;4.77;;;3.47;;
13404;SDS011;6773;51.192;7.024;2023-04-03T06:24:07;7.37;;;3.87;;
13404;SDS011;6773;51.192;7.024;2023-04-03T06:26:33;6.17;;;3.80;;
13404;SDS011;6773;51.192;7.024;2023-04-03T06:28:59;5.53;;;3.93;;
13404;SDS011;6773;51.192;7.024;2023-04-03T06:31:25;5.00;;;3.40;;
13404;SDS011;6773;51.192;7.024;2023-04-03T06:33:51;4.87;;;3.50;;
13404;SDS011;6773;51.192;7.024;2023-04-03T06:36:17;6.80;;;3.57;;
13404;SDS011;6773;51.192;7.024;2023-04-03T06:38:45;6.60;;;3.50;;
13404;SDS011;6773;51.192;7.024;2023-04-03T06:41:11;4.83;;;3.23;;
13404;SDS011;6773;51.192;7.024;2023-04-03T06:43:37;3.33;;;3.03;;
13404;SDS011;6773;51.192;7.024;2023-04-03T06:46:03;6.33;;;2.90;;
13404;SDS011;6773;51.192;7.024;2023-04-03T06:48:29;3.50;;;3.07;;
13404;SDS011;6773;51.192;7.024;2023-04-03T06:50:54;6.43;;;3.20;;
13404;SDS011;6773;51.192;7.024;2023-04-03T06:53:20;8.27;;;3.17;;
13404;SDS011;6773;51.192;7.024;2023-04-03T06:55:46;7.87;;;2.90;;
13404;SDS011;6773;51.192;7.024;2023-04-03T06:58:12;3.47;;;2.77;;
13404;SDS011;6773;51.192;7.024;2023-04-03T07:00:40;6.37;;;3.30;;
13404;SDS011;6773;51.192;7.024;2023-04-03T07:03:06;7.43;;;2.80;;
13404;SDS011;6773;51.192;7.024;2023-04-03T07:05:31;5.00;;;3.00;;
13404;SDS011;6773;51.192;7.024;2023-04-03T07:07:57;5.23;;;2.97;;
13404;SDS011;6773;51.192;7.024;2023-04-03T07:10:23;4.67;;;3.17;;
13404;SDS011;6773;51.192;7.024;2023-04-03T07:12:48;2.70;;;2.50;;
13404;SDS011;6773;51.192;7.024;2023-04-03T07:15:14;3.53;;;3.20;;
13404;SDS011;6773;51.192;7.024;2023-04-03T07:17:40;5.63;;;2.73;;
13404;SDS011;6773;51.192;7.024;2023-04-03T07:20:06;4.13;;;2.57;;
13404;SDS011;6773;51.192;7.024;2023-04-03T07:22:33;6.33;;;2.40;;
13404;SDS011;6773;51.192;7.024;2023-04-03T07:24:59;3.60;;;2.60;;
13404;SDS011;6773;51.192;7.024;2023-04-03T07:27:25;5.20;;;2.67;;
13404;SDS011;6773;51.192;7.024;2023-04-03T07:29:51;2.57;;;2.37;;
13404;SDS011;6773;51.192;7.024;2023-04-03T07:32:16;4.40;;;2.50;;
13404;SDS011;6773;51.192;7.024;2023-04-03T07:34:42;3.63;;;2.23;;
13404;SDS011;6773;51.192;7.024;2023-04-03T07:37:09;5.00;;;2.83;;
13404;SDS011;6773;51.192;7.024;2023-04-03T07:39:34;3.43;;;2.47;;
13404;SDS011;6773;51.192;7.024;2023-04-03T07:42:00;2.23;;;2.03;;
13404;SDS011;6773;51.192;7.024;2023-04-03T07:44:26;3.10;;;2.30;;
13404;SDS011;6773;51.192;7.024;2023-04-03T07:46:52;3.57;;;2.33;;
13404;SDS011;6773;51.192;7.024;2023-04-03T07:49:20;2.30;;;2.10;;
13404;SDS011;6773;51.192;7.024;2023-04-03T07:51:48;2.80;;;2.10;;
13404;SDS011;6773;51.192;7.024;2023-04-03T07:54:14;4.80;;;2.40;;
13404;SDS011;6773;51.192;7.024;2023-04-03T07:56:40;3.70;;;2.20;;
13404;SDS011;6773;51.192;7.024;2023-04-03T07:59:07;4.43;;;2.10;;
13404;SDS011;6773;51.192;7.024;2023-04-03T08:01:34;2.57;;;1.80;;
13404;SDS011;6773;51.192;7.024;2023-04-03T08:04:00;4.77;;;2.23;;
13404;SDS011;6773;51.192;7.024;2023-04-03T08:06:26;4.13;;;2.30;;
13404;SDS011;6773;51.192;7.024;2023-04-03T08:08:51;4.80;;;2.60;;
13404;SDS011;6773;51.192;7.024;2023-04-03T08:11:17;4.33;;;1.83;;
13404;SDS011;6773;51.192;7.024;2023-04-03T08:13:43;2.50;;;2.30;;
13404;SDS011;6773;51.192;7.024;2023-04-03T08:16:14;2.90;;;1.87;;
13404;SDS011;6773;51.192;7.024;2023-04-03T08:18:42;2.73;;;1.70;;
13404;SDS011;6773;51.192;7.024;2023-04-03T08:21:09;2.03;;;1.63;;
13404;SDS011;6773;51.192;7.024;2023-04-03T08:23:36;1.90;;;1.70;;
13404;SDS011;6773;51.192;7.024;2023-04-03T08:26:12;2.30;;;2.00;;
13404;SDS011;6773;51.192;7.024;2023-04-03T08:28:42;3.17;;;1.80;;
13404;SDS011;6773;51.192;7.024;2023-04-03T08:31:09;2.23;;;1.70;;
13404;SDS011;6773;51.192;7.024;2023-04-03T08:33:37;4.00;;;1.80;;
13404;SDS011;6773;51.192;7.024;2023-04-03T08:36:03;2.37;;;1.90;;
13404;SDS011;6773;51.192;7.024;2023-04-03T08:38:40;4.37;;;1.80;;
13404;SDS011;6773;51.192;7.024;2023-04-03T08:44:13;4.70;;;2.00;;
13404;SDS011;6773;51.192;7.024;2023-04-03T08:46:56;4.07;;;2.13;;
13404;SDS011;6773;51.192;7.024;2023-04-03T08:49:59;2.87;;;2.00;;
13404;SDS011;6773;51.192;7.024;2023-04-03T08:52:32;3.43;;;2.10;;
13404;SDS011;6773;51.192;7.024;2023-04-03T08:55:05;3.07;;;2.30;;
13404;SDS011;6773;51.192;7.024;2023-04-03T08:57:41;4.10;;;2.10;;
13404;SDS011;6773;51.192;7.024;2023-04-03T09:02:49;2.87;;;1.83;;
13404;SDS011;6773;51.192;7.024;2023-04-03T09:08:10;2.33;;;2.10;;
13404;SDS011;6773;51.192;7.024;2023-04-03T09:10:42;1.80;;;1.70;;
13404;SDS011;6773;51.192;7.024;2023-04-03T09:13:13;4.80;;;2.10;;
13404;SDS011;6773;51.192;7.024;2023-04-03T09:15:52;2.50;;;1.83;;
13404;SDS011;6773;51.192;7.024;2023-04-03T09:18:20;2.93;;;1.80;;
13404;SDS011;6773;51.192;7.024;2023-04-03T09:23:49;4.10;;;1.70;;
13404;SDS011;6773;51.192;7.024;2023-04-03T09:26:30;2.20;;;1.50;;
13404;SDS011;6773;51.192;7.024;2023-04-03T09:29:18;1.90;;;1.50;;
13404;SDS011;6773;51.192;7.024;2023-04-03T09:31:47;3.47;;;1.60;;
13404;SDS011;6773;51.192;7.024;2023-04-03T09:34:18;2.10;;;1.53;;
13404;SDS011;6773;51.192;7.024;2023-04-03T09:36:48;1.83;;;1.47;;
13404;SDS011;6773;51.192;7.024;2023-04-03T09:39:20;1.50;;;1.40;;
13404;SDS011;6773;51.192;7.024;2023-04-03T09:42:01;1.60;;;1.40;;
13404;SDS011;6773;51.192;7.024;2023-04-03T09:47:26;1.80;;;1.53;;
13404;SDS011;6773;51.192;7.024;2023-04-03T09:52:43;1.90;;;1.50;;
13404;SDS011;6773;51.192;7.024;2023-04-03T09:55:15;2.30;;;1.50;;
13404;SDS011;6773;51.192;7.024;2023-04-03T09:57:43;2.43;;;1.50;;
13404;SDS011;6773;51.192;7.024;2023-04-03T10:00:20;2.37;;;1.40;;
13404;SDS011;6773;51.192;7.024;2023-04-03T10:02:54;1.40;;;1.30;;
13404;SDS011;6773;51.192;7.024;2023-04-03T10:05:34;2.37;;;1.60;;
13404;SDS011;6773;51.192;7.024;2023-04-03T10:10:42;1.50;;;1.40;;
13404;SDS011;6773;51.192;7.024;2023-04-03T10:13:11;1.60;;;1.50;;
13404;SDS011;6773;51.192;7.024;2023-04-03T10:15:44;1.50;;;1.33;;
13404;SDS011;6773;51.192;7.024;2023-04-03T10:18:22;2.10;;;1.70;;
13404;SDS011;6773;51.192;7.024;2023-04-03T10:20:54;1.60;;;1.50;;
13404;SDS011;6773;51.192;7.024;2023-04-03T10:23:28;2.70;;;1.70;;
13404;SDS011;6773;51.192;7.024;2023-04-03T10:26:16;3.33;;;1.73;;
13404;SDS011;6773;51.192;7.024;2023-04-03T10:31:16;2.53;;;1.53;;
13404;SDS011;6773;51.192;7.024;2023-04-03T10:33:59;2.27;;;1.50;;
13404;SDS011;6773;51.192;7.024;2023-04-03T10:36:40;1.53;;;1.30;;
13404;SDS011;6773;51.192;7.024;2023-04-03T10:39:46;3.07;;;1.83;;
13404;SDS011;6773;51.192;7.024;2023-04-03T10:53:07;1.60;;;1.30;;
13404;SDS011;6773;51.192;7.024;2023-04-03T10:55:46;1.50;;;1.40;;
13404;SDS011;6773;51.192;7.024;2023-04-03T10:59:00;1.33;;;1.20;;
13404;SDS011;6773;51.192;7.024;2023-04-03T11:01:12;1.40;;;1.30;;
13404;SDS011;6773;51.192;7.024;2023-04-03T11:03:45;1.93;;;1.50;;
13404;SDS011;6773;51.192;7.024;2023-04-03T11:06:15;1.83;;;1.13;;
13404;SDS011;6773;51.192;7.024;2023-04-03T11:11:25;2.00;;;1.40;;
13404;SDS011;6773;51.192;7.024;2023-04-03T11:14:00;2.00;;;1.20;;
13404;SDS011;6773;51.192;7.024;2023-04-03T11:16:36;1.90;;;1.40;;
13404;SDS011;6773;51.192;7.024;2023-04-03T11:19:17;1.93;;;1.37;;
13404;SDS011;6773;51.192;7.024;2023-04-03T11:21:54;1.70;;;1.33;;
13404;SDS011;6773;51.192;7.024;2023-04-03T11:24:27;2.60;;;1.70;;
13404;SDS011;6773;51.192;7.024;2023-04-03T11:26:56;1.87;;;1.43;;
13404;SDS011;6773;51.192;7.024;2023-04-03T11:29:25;1.60;;;1.43;;
13404;SDS011;6773;51.192;7.024;2023-04-03T11:34:34;2.47;;;1.30;;
13404;SDS011;6773;51.192;7.024;2023-04-03T11:39:54;1.30;;;1.20;;
13404;SDS011;6773;51.192;7.024;2023-04-03T11:42:39;2.20;;;1.20;;
13404;SDS011;6773;51.192;7.024;2023-04-03T11:47:53;1.30;;;1.20;;
13404;SDS011;6773;51.192;7.024;2023-04-03T12:04:18;2.73;;;1.20;;
13404;SDS011;6773;51.192;7.024;2023-04-03T12:06:49;3.37;;;1.27;;
13404;SDS011;6773;51.192;7.024;2023-04-03T12:09:27;2.87;;;1.40;;
13404;SDS011;6773;51.192;7.024;2023-04-03T12:12:00;1.40;;;1.30;;
13404;SDS011;6773;51.192;7.024;2023-04-03T12:14:45;1.20;;;1.10;;
13404;SDS011;6773;51.192;7.024;2023-04-03T12:17:18;1.30;;;1.23;;
13404;SDS011;6773;51.192;7.024;2023-04-03T12:19:48;1.20;;;1.20;;
13404;SDS011;6773;51.192;7.024;2023-04-03T12:22:15;1.53;;;1.23;;
13404;SDS011;6773;51.192;7.024;2023-04-03T12:24:42;1.73;;;1.40;;
13404;SDS011;6773;51.192;7.024;2023-04-03T12:48:54;2.60;;;1.30;;
13404;SDS011;6773;51.192;7.024;2023-04-03T12:54:04;1.40;;;1.20;;
13404;SDS011;6773;51.192;7.024;2023-04-03T12:56:38;2.57;;;1.40;;
13404;SDS011;6773;51.192;7.024;2023-04-03T12:59:18;2.13;;;1.17;;
13404;SDS011;6773;51.192;7.024;2023-04-03T13:01:55;3.03;;;1.30;;
13404;SDS011;6773;51.192;7.024;2023-04-03T13:04:22;1.50;;;1.27;;
13404;SDS011;6773;51.192;7.024;2023-04-03T13:06:49;1.40;;;1.20;;
13404;SDS011;6773;51.192;7.024;2023-04-03T13:09:22;1.30;;;0.88;;
13404;SDS011;6773;51.192;7.024;2023-04-03T13:11:51;1.83;;;1.20;;
13404;SDS011;6773;51.192;7.024;2023-04-03T13:14:22;1.35;;;1.25;;
13404;SDS011;6773;51.192;7.024;2023-04-03T13:17:02;2.17;;;1.38;;
13404;SDS011;6773;51.192;7.024;2023-04-03T13:19:29;1.30;;;1.20;;
13404;SDS011;6773;51.192;7.024;2023-04-03T13:21:59;1.67;;;1.15;;
13404;SDS011;6773;51.192;7.024;2023-04-03T13:24:30;3.00;;;1.50;;
13404;SDS011;6773;51.192;7.024;2023-04-03T13:26:59;0.80;;;0.80;;
13404;SDS011;6773;51.192;7.024;2023-04-03T13:29:27;2.35;;;1.40;;
13404;SDS011;6773;51.192;7.024;2023-04-03T13:31:58;3.75;;;1.35;;
13404;SDS011;6773;51.192;7.024;2023-04-03T13:34:26;2.42;;;1.23;;
13404;SDS011;6773;51.192;7.024;2023-04-03T13:39:25;3.30;;;1.20;;
13404;SDS011;6773;51.192;7.024;2023-04-03T13:41:57;3.15;;;1.40;;
13404;SDS011;6773;51.192;7.024;2023-04-03T13:44:34;1.23;;;1.08;;
13404;SDS011;6773;51.192;7.024;2023-04-03T13:47:14;1.10;;;1.00;;
13404;SDS011;6773;51.192;7.024;2023-04-03T13:49:41;2.40;;;1.52;;
13404;SDS011;6773;51.192;7.024;2023-04-03T13:52:21;2.58;;;1.33;;
13404;SDS011;6773;51.192;7.024;2023-04-03T13:54:54;1.40;;;1.30;;
13404;SDS011;6773;51.192;7.024;2023-04-03T13:57:23;2.00;;;1.33;;
13404;SDS011;6773;51.192;7.024;2023-04-03T13:59:49;1.58;;;1.40;;
13404;SDS011;6773;51.192;7.024;2023-04-03T14:02:22;2.57;;;1.50;;
13404;SDS011;6773;51.192;7.024;2023-04-03T14:04:56;2.20;;;1.50;;
13404;SDS011;6773;51.192;7.024;2023-04-03T14:07:26;2.87;;;1.33;;
13404;SDS011;6773;51.192;7.024;2023-04-03T14:09:53;2.97;;;1.70;;
13404;SDS011;6773;51.192;7.024;2023-04-03T14:14:51;2.97;;;1.50;;
13404;SDS011;6773;51.192;7.024;2023-04-03T14:17:18;2.43;;;1.30;;
13404;SDS011;6773;51.192;7.024;2023-04-03T14:19:46;2.27;;;1.50;;
13404;SDS011;6773;51.192;7.024;2023-04-03T14:22:23;3.00;;;1.80;;
13404;SDS011;6773;51.192;7.024;2023-04-03T14:24:51;2.57;;;1.40;;
13404;SDS011;6773;51.192;7.024;2023-04-03T14:27:22;3.07;;;1.50;;
13404;SDS011;6773;51.192;7.024;2023-04-03T14:29:52;1.60;;;1.43;;
13404;SDS011;6773;51.192;7.024;2023-04-03T14:32:20;2.70;;;2.00;;
13404;SDS011;6773;51.192;7.024;2023-04-03T14:34:47;3.00;;;1.60;;
13404;SDS011;6773;51.192;7.024;2023-04-03T14:37:14;2.80;;;1.60;;
13404;SDS011;6773;51.192;7.024;2023-04-03T14:39:43;1.73;;;1.43;;
13404;SDS011;6773;51.192;7.024;2023-04-03T14:42:15;3.67;;;1.90;;
13404;SDS011;6773;51.192;7.024;2023-04-03T14:44:44;2.17;;;1.40;;
13404;SDS011;6773;51.192;7.024;2023-04-03T14:47:10;2.70;;;1.27;;
13404;SDS011;6773;51.192;7.024;2023-04-03T14:49:41;2.00;;;1.50;;
13404;SDS011;6773;51.192;7.024;2023-04-03T14:52:11;2.07;;;1.50;;
13404;SDS011;6773;51.192;7.024;2023-04-03T14:54:46;1.53;;;1.40;;
13404;SDS011;6773;51.192;7.024;2023-04-03T14:57:13;2.70;;;1.63;;
13404;SDS011;6773;51.192;7.024;2023-04-03T14:59:40;1.97;;;1.33;;
13404;SDS011;6773;51.192;7.024;2023-04-03T15:04:50;2.60;;;1.60;;
13404;SDS011;6773;51.192;7.024;2023-04-03T15:07:16;1.60;;;1.40;;
13404;SDS011;6773;51.192;7.024;2023-04-03T15:09:41;1.87;;;1.60;;
13404;SDS011;6773;51.192;7.024;2023-04-03T15:12:07;1.60;;;1.50;;
13404;SDS011;6773;51.192;7.024;2023-04-03T15:14:34;2.77;;;1.83;;
13404;SDS011;6773;51.192;7.024;2023-04-03T15:17:00;2.87;;;1.57;;
13404;SDS011;6773;51.192;7.024;2023-04-03T15:19:27;3.20;;;1.73;;
13404;SDS011;6773;51.192;7.024;2023-04-03T15:21:52;3.20;;;1.70;;
13404;SDS011;6773;51.192;7.024;2023-04-03T15:24:18;2.37;;;1.50;;
13404;SDS011;6773;51.192;7.024;2023-04-03T15:26:43;3.50;;;1.70;;
13404;SDS011;6773;51.192;7.024;2023-04-03T15:29:09;1.73;;;1.53;;
13404;SDS011;6773;51.192;7.024;2023-04-03T15:31:35;3.30;;;1.73;;
13404;SDS011;6773;51.192;7.024;2023-04-03T15:34:01;2.43;;;1.80;;
13404;SDS011;6773;51.192;7.024;2023-04-03T15:36:28;2.90;;;1.70;;
13404;SDS011;6773;51.192;7.024;2023-04-03T15:38:53;1.60;;;1.47;;
13404;SDS011;6773;51.192;7.024;2023-04-03T15:41:19;4.70;;;2.00;;
13404;SDS011;6773;51.192;7.024;2023-04-03T15:43:44;2.53;;;2.00;;
13404;SDS011;6773;51.192;7.024;2023-04-03T15:46:10;1.87;;;1.30;;
13404;SDS011;6773;51.192;7.024;2023-04-03T15:48:37;3.53;;;1.70;;
13404;SDS011;6773;51.192;7.024;2023-04-03T15:51:03;2.47;;;1.30;;
13404;SDS011;6773;51.192;7.024;2023-04-03T15:53:30;3.22;;;1.38;;
13404;SDS011;6773;51.192;7.024;2023-04-03T15:55:55;2.42;;;1.45;;
13404;SDS011;6773;51.192;7.024;2023-04-03T15:58:21;1.60;;;1.38;;
13404;SDS011;6773;51.192;7.024;2023-04-03T16:00:46;3.22;;;1.30;;
13404;SDS011;6773;51.192;7.024;2023-04-03T16:03:14;2.25;;;1.40;;
13404;SDS011;6773;51.192;7.024;2023-04-03T16:05:42;5.43;;;1.60;;
13404;SDS011;6773;51.192;7.024;2023-04-03T16:08:08;4.22;;;1.50;;
13404;SDS011;6773;51.192;7.024;2023-04-03T16:10:35;2.17;;;1.40;;
13404;SDS011;6773;51.192;7.024;2023-04-03T16:13:01;3.50;;;1.50;;
13404;SDS011;6773;51.192;7.024;2023-04-03T16:15:28;2.95;;;1.42;;
13404;SDS011;6773;51.192;7.024;2023-04-03T16:17:55;1.73;;;1.30;;
13404;SDS011;6773;51.192;7.024;2023-04-03T16:20:22;1.98;;;1.23;;
13404;SDS011;6773;51.192;7.024;2023-04-03T16:22:48;2.78;;;1.50;;
13404;SDS011;6773;51.192;7.024;2023-04-03T16:25:14;1.90;;;1.50;;
13404;SDS011;6773;51.192;7.024;2023-04-03T16:27:40;2.30;;;1.40;;
13404;SDS011;6773;51.192;7.024;2023-04-03T16:30:06;2.78;;;1.67;;
13404;SDS011;6773;51.192;7.024;2023-04-03T16:32:33;1.83;;;1.20;;
13404;SDS011;6773;51.192;7.024;2023-04-03T16:34:59;2.25;;;1.42;;
13404;SDS011;6773;51.192;7.024;2023-04-03T16:37:25;1.98;;;1.77;;
13404;SDS011;6773;51.192;7.024;2023-04-03T16:39:51;3.00;;;1.58;;
13404;SDS011;6773;51.192;7.024;2023-04-03T16:42:17;1.35;;;1.20;;
13404;SDS011;6773;51.192;7.024;2023-04-03T16:44:42;1.98;;;1.40;;